Time;durP1;ratioP1;P1;durP2;ratioP2;P2;SDS_P1;SDS_P2;PMS_P1;PMS_P2;Temp;Humidity;BMP_temperature;BMP_pressure;BME280_temperature;BME280_humidity;BME280_pressure;Samples;Min_cycle;Max_cycle;Signal;HPM_P1;HPM_P2
2022/08/03 00:00:38;;;;;;;6.70;1.90;;;19.80;99.90;;;;;;5073361;28;20224;-58
2022/08/03 00:03:07;;;;;;;3.40;2.20;;;19.70;99.90;;;;;;5074645;28;20224;-58
2022/08/03 00:05:37;;;;;;;3.03;2.00;;;19.70;99.90;;;;;;5084950;28;20219;-58
2022/08/03 00:08:06;;;;;;;3.77;1.70;;;19.60;99.90;;;;;;5078905;28;20663;-58
2022/08/03 00:10:34;;;;;;;6.57;2.00;;;19.60;99.90;;;;;;5085498;28;20203;-58
2022/08/03 00:13:02;;;;;;;4.27;2.00;;;19.50;99.90;;;;;;5073385;28;20282;-58
2022/08/03 00:15:31;;;;;;;4.27;1.90;;;19.50;99.90;;;;;;5064261;28;20287;-59
2022/08/03 00:17:59;;;;;;;1.90;1.60;;;19.50;99.90;;;;;;5074173;28;20196;-58
2022/08/03 00:20:28;;;;;;;7.23;2.00;;;19.40;99.90;;;;;;5062635;28;20676;-57
2022/08/03 00:22:57;;;;;;;7.57;1.90;;;19.40;99.90;;;;;;5069717;28;20196;-58
2022/08/03 00:25:27;;;;;;;8.10;2.07;;;19.40;99.90;;;;;;5073037;28;20189;-58
2022/08/03 00:27:55;;;;;;;6.27;2.20;;;19.40;99.90;;;;;;5062116;28;20201;-57
2022/08/03 00:30:24;;;;;;;3.87;2.03;;;19.40;99.90;;;;;;5069819;28;20740;-57
2022/08/03 00:33:01;;;;;;;6.83;2.10;;;19.40;99.90;;;;;;5068188;28;20180;-58
2022/08/03 00:35:31;;;;;;;4.40;1.87;;;19.30;99.90;;;;;;5073471;28;20540;-58
2022/08/03 00:41:39;;;;;;;9.60;2.10;;;19.30;99.90;;;;;;5060137;28;20222;-58
2022/08/03 00:44:07;;;;;;;5.83;2.20;;;19.20;99.90;;;;;;5074005;28;20204;-58
2022/08/03 00:47:03;;;;;;;6.73;2.30;;;19.10;99.90;;;;;;5074406;28;20237;-57
2022/08/03 00:49:32;;;;;;;8.47;2.10;;;19.10;99.90;;;;;;5072722;28;20220;-58
2022/08/03 00:52:02;;;;;;;6.60;2.40;;;19.10;99.90;;;;;;5073726;28;20196;-58
2022/08/03 00:54:45;;;;;;;8.03;2.30;;;19.00;99.90;;;;;;5073536;28;20216;-58
2022/08/03 00:57:15;;;;;;;4.17;2.07;;;19.00;99.90;;;;;;5072188;28;20200;-58
2022/08/03 00:59:43;;;;;;;8.27;2.40;;;19.00;99.90;;;;;;5073591;28;20588;-58
2022/08/03 01:02:13;;;;;;;6.53;1.90;;;19.00;99.90;;;;;;5071440;28;20282;-57
2022/08/03 01:04:41;;;;;;;3.77;1.83;;;18.90;99.90;;;;;;5094224;28;20199;-58
2022/08/03 01:07:41;;;;;;;8.13;2.10;;;18.90;99.90;;;;;;5066619;28;20192;-58
2022/08/03 01:10:18;;;;;;;7.07;2.13;;;18.90;99.90;;;;;;5073449;28;20306;-57
2022/08/03 01:12:57;;;;;;;5.30;1.77;;;18.90;99.90;;;;;;5073367;28;20270;-58
2022/08/03 01:15:31;;;;;;;2.63;2.00;;;18.80;99.90;;;;;;5066684;28;20204;-58
2022/08/03 01:18:08;;;;;;;6.07;2.03;;;18.80;99.90;;;;;;5072926;28;20650;-58
2022/08/03 01:20:40;;;;;;;5.93;2.00;;;18.80;99.90;;;;;;5073429;28;20191;-58
2022/08/03 01:23:35;;;;;;;3.43;2.07;;;18.70;99.90;;;;;;5055379;28;20185;-58
2022/08/03 01:26:21;;;;;;;4.97;2.40;;;18.70;99.90;;;;;;5072851;28;20219;-58
2022/08/03 01:29:04;;;;;;;4.53;2.20;;;18.70;99.90;;;;;;5072424;28;20196;-58
2022/08/03 01:31:40;;;;;;;5.37;1.90;;;18.60;99.90;;;;;;5080756;28;20215;-57
2022/08/03 01:34:34;;;;;;;2.10;1.80;;;18.60;99.90;;;;;;5092393;28;20199;-58
2022/08/03 01:37:06;;;;;;;4.90;2.00;;;18.50;99.90;;;;;;5073028;28;20227;-58
2022/08/03 01:39:37;;;;;;;10.67;2.10;;;18.50;99.90;;;;;;5069399;28;20279;-58
2022/08/03 01:42:08;;;;;;;7.10;1.93;;;18.50;99.90;;;;;;5066123;28;20622;-58
2022/08/03 01:44:41;;;;;;;8.60;2.23;;;18.50;99.90;;;;;;5055116;28;20200;-57
2022/08/03 01:47:12;;;;;;;6.57;2.27;;;18.40;99.90;;;;;;5056410;28;20196;-58
2022/08/03 01:49:45;;;;;;;2.63;2.27;;;18.30;99.90;;;;;;5054916;28;20278;-57
2022/08/03 01:52:17;;;;;;;6.20;2.37;;;18.30;99.90;;;;;;5073356;28;20196;-57
2022/08/03 01:54:50;;;;;;;3.73;2.17;;;18.20;99.90;;;;;;5072670;28;20218;-58
2022/08/03 01:57:21;;;;;;;4.03;1.90;;;18.30;99.90;;;;;;5073054;28;20219;-57
2022/08/03 01:59:50;;;;;;;5.00;2.03;;;18.20;99.90;;;;;;5075791;28;20278;-58
2022/08/03 02:02:21;;;;;;;3.40;1.80;;;18.20;99.90;;;;;;5087677;28;20403;-57
2022/08/03 02:05:05;;;;;;;4.60;1.90;;;18.10;99.90;;;;;;5072884;28;20200;-57
2022/08/03 02:07:43;;;;;;;6.23;1.90;;;18.10;99.90;;;;;;5072629;28;20592;-57
2022/08/03 02:10:15;;;;;;;5.50;1.77;;;18.10;99.90;;;;;;5061812;28;20235;-57
2022/08/03 02:13:05;;;;;;;4.73;2.00;;;18.00;99.90;;;;;;5073151;28;20634;-57
2022/08/03 02:15:36;;;;;;;6.53;2.10;;;18.00;99.90;;;;;;5072739;28;20200;-58
2022/08/03 02:18:09;;;;;;;5.30;2.10;;;18.00;99.90;;;;;;5072499;28;20231;-58
2022/08/03 02:20:39;;;;;;;5.27;1.93;;;18.00;99.90;;;;;;5071659;28;20644;-58
2022/08/03 02:23:46;;;;;;;7.33;2.03;;;17.90;99.90;;;;;;5069903;28;20208;-58
2022/08/03 02:26:20;;;;;;;3.47;1.80;;;17.90;99.90;;;;;;5067391;28;20196;-58
2022/08/03 02:28:51;;;;;;;10.37;2.60;;;17.80;99.90;;;;;;5072062;28;20694;-58
2022/08/03 02:31:27;;;;;;;5.07;2.17;;;17.80;99.90;;;;;;5062395;28;20192;-58
2022/08/03 02:34:01;;;;;;;6.50;2.00;;;17.70;99.90;;;;;;5072363;28;20624;-58
2022/08/03 02:36:39;;;;;;;5.37;1.90;;;17.70;99.90;;;;;;5072815;28;20202;-59
2022/08/03 02:43:03;;;;;;;2.77;1.83;;;17.60;99.90;;;;;;5060083;28;20207;-59
2022/08/03 02:45:38;;;;;;;2.97;2.10;;;17.50;99.90;;;;;;5099980;28;20188;-59
2022/08/03 02:48:15;;;;;;;5.00;1.90;;;17.50;99.90;;;;;;5072384;28;20619;-58
2022/08/03 02:50:53;;;;;;;2.63;1.97;;;17.50;99.90;;;;;;5071460;28;20279;-58
2022/08/03 02:53:24;;;;;;;2.33;1.90;;;17.40;99.90;;;;;;5072371;28;20267;-59
2022/08/03 02:55:55;;;;;;;7.43;2.50;;;17.40;99.90;;;;;;5056566;28;20639;-59
2022/08/03 02:58:24;;;;;;;3.87;2.00;;;17.40;99.90;;;;;;5064651;28;20198;-58
2022/08/03 03:00:54;;;;;;;5.03;2.40;;;17.40;99.90;;;;;;5075337;28;20697;-58
2022/08/03 03:03:23;;;;;;;6.73;2.30;;;17.40;99.90;;;;;;5067948;28;20303;-58
2022/08/03 03:05:56;;;;;;;3.23;2.50;;;17.30;99.90;;;;;;5056008;28;20271;-59
2022/08/03 03:08:27;;;;;;;5.37;2.20;;;17.30;99.90;;;;;;5055848;28;20228;-58
2022/08/03 03:10:59;;;;;;;5.77;2.30;;;17.30;99.90;;;;;;5056114;28;20667;-58
2022/08/03 03:13:30;;;;;;;3.67;2.13;;;17.30;99.90;;;;;;5057427;28;20617;-59
2022/08/03 03:16:03;;;;;;;5.33;2.20;;;17.30;99.90;;;;;;5075475;28;20216;-59
2022/08/03 03:18:34;;;;;;;3.73;2.40;;;17.20;99.90;;;;;;5074558;28;20241;-59
2022/08/03 03:21:04;;;;;;;4.40;2.50;;;17.20;99.90;;;;;;5075424;28;20526;-58
2022/08/03 03:23:37;;;;;;;6.80;2.10;;;17.20;99.90;;;;;;5075755;28;20296;-59
2022/08/03 03:26:06;;;;;;;5.50;1.97;;;17.10;99.90;;;;;;5089218;28;20196;-59
2022/08/03 03:28:36;;;;;;;2.83;2.20;;;17.10;99.90;;;;;;5072288;28;20194;-59
2022/08/03 03:31:06;;;;;;;3.40;2.20;;;17.10;99.90;;;;;;5075561;28;20183;-59
2022/08/03 03:33:35;;;;;;;6.93;2.17;;;17.10;99.90;;;;;;5073416;28;20237;-59
2022/08/03 03:36:40;;;;;;;5.20;2.43;;;17.10;99.90;;;;;;5055214;28;20194;-59
2022/08/03 03:39:10;;;;;;;5.23;2.30;;;17.10;99.90;;;;;;5066175;28;20215;-58
2022/08/03 03:41:43;;;;;;;6.47;2.47;;;17.10;99.90;;;;;;5073776;28;20196;-59
2022/08/03 03:44:52;;;;;;;3.97;2.10;;;17.10;99.90;;;;;;5075263;28;20568;-59
2022/08/03 03:47:21;;;;;;;6.13;2.67;;;17.10;99.90;;;;;;5070879;28;20200;-59
2022/08/03 03:50:01;;;;;;;4.27;2.10;;;17.10;99.90;;;;;;5074928;28;20261;-59
2022/08/03 03:52:31;;;;;;;5.50;2.47;;;17.10;99.90;;;;;;5075190;28;20192;-58
2022/08/03 03:55:00;;;;;;;6.10;2.50;;;17.10;99.90;;;;;;5062675;28;20240;-59
2022/08/03 03:57:29;;;;;;;6.03;2.53;;;17.10;99.90;;;;;;5055056;28;20247;-59
2022/08/03 03:59:57;;;;;;;7.83;2.80;;;17.10;99.90;;;;;;5054863;28;20189;-58
2022/08/03 04:02:26;;;;;;;2.73;2.47;;;17.10;99.90;;;;;;5061108;28;20212;-59
2022/08/03 04:13:27;;;;;;;5.57;2.60;;;17.10;99.90;;;;;;5074380;28;20229;-59
2022/08/03 04:15:57;;;;;;;8.33;2.90;;;17.10;99.90;;;;;;5074782;28;20192;-59
2022/08/03 04:18:29;;;;;;;5.70;2.43;;;17.10;99.90;;;;;;5107464;28;20544;-59
2022/08/03 04:21:00;;;;;;;4.93;2.40;;;17.10;99.90;;;;;;5074471;28;20213;-59
2022/08/03 04:23:30;;;;;;;4.50;2.60;;;17.10;99.90;;;;;;5066471;28;20658;-58
2022/08/03 04:26:02;;;;;;;5.70;2.70;;;17.10;99.90;;;;;;5064274;28;20184;-58
2022/08/03 04:28:32;;;;;;;6.93;2.87;;;17.10;99.90;;;;;;5074432;28;20226;-59
2022/08/03 04:31:02;;;;;;;6.97;2.70;;;17.10;99.90;;;;;;5072857;28;20289;-59
2022/08/03 04:33:51;;;;;;;3.90;2.70;;;17.10;99.90;;;;;;5073817;28;20196;-59
2022/08/03 04:36:53;;;;;;;6.63;2.60;;;17.10;99.90;;;;;;5064149;28;20226;-58
2022/08/03 04:39:26;;;;;;;7.57;2.60;;;17.10;99.90;;;;;;5074393;28;20674;-59
2022/08/03 04:42:01;;;;;;;5.13;3.03;;;17.20;99.90;;;;;;5074150;28;20613;-58
2022/08/03 04:44:46;;;;;;;7.13;2.80;;;17.20;99.90;;;;;;5067583;28;20289;-59
2022/08/03 04:47:15;;;;;;;7.87;2.60;;;17.20;99.90;;;;;;5073948;28;20203;-58
2022/08/03 04:49:44;;;;;;;3.30;2.77;;;17.20;99.90;;;;;;5073967;28;20640;-59
2022/08/03 04:52:13;;;;;;;11.53;3.30;;;17.30;99.90;;;;;;5072444;28;20664;-58
2022/08/03 04:54:42;;;;;;;8.00;2.90;;;17.30;99.90;;;;;;5072637;28;20292;-58
2022/08/03 04:57:19;;;;;;;4.47;2.63;;;17.30;99.90;;;;;;5073884;28;20202;-59
2022/08/03 04:59:53;;;;;;;4.50;2.60;;;17.30;99.90;;;;;;5072354;28;20198;-59
2022/08/03 05:02:30;;;;;;;6.97;2.90;;;17.40;99.90;;;;;;5066145;28;20194;-58
2022/08/03 05:04:59;;;;;;;6.53;2.80;;;17.50;99.90;;;;;;5078845;28;20654;-58
2022/08/03 05:07:27;;;;;;;4.13;2.60;;;17.50;99.90;;;;;;5094006;28;20195;-59
2022/08/03 05:10:05;;;;;;;6.23;2.83;;;17.60;99.90;;;;;;5064184;28;20236;-59
2022/08/03 05:12:45;;;;;;;6.87;3.30;;;17.70;99.90;;;;;;5072264;28;20180;-58
2022/08/03 05:15:14;;;;;;;5.50;2.63;;;17.80;99.90;;;;;;5063086;28;20192;-59
2022/08/03 05:17:43;;;;;;;7.30;2.60;;;17.90;99.90;;;;;;5073576;28;20195;-59
2022/08/03 05:20:37;;;;;;;7.07;3.10;;;18.00;99.90;;;;;;5066586;28;20213;-59
2022/08/03 05:23:05;;;;;;;13.63;3.03;;;18.20;99.90;;;;;;5055282;28;20216;-58
2022/08/03 05:25:34;;;;;;;10.87;2.90;;;18.40;99.90;;;;;;5073410;28;20226;-59
2022/08/03 05:28:04;;;;;;;6.70;2.77;;;18.50;99.90;;;;;;5072785;28;20271;-59
2022/08/03 05:30:33;;;;;;;9.40;3.07;;;18.70;99.90;;;;;;5073601;28;20254;-58
2022/08/03 05:33:03;;;;;;;6.93;3.23;;;18.90;99.90;;;;;;5067446;28;20533;-59
2022/08/03 05:35:33;;;;;;;11.67;2.63;;;19.10;99.90;;;;;;5073189;28;20196;-59
2022/08/03 05:38:22;;;;;;;5.57;2.73;;;19.30;99.90;;;;;;5064669;28;20196;-59
2022/08/03 05:40:56;;;;;;;7.53;2.43;;;19.50;99.90;;;;;;5071869;28;20195;-59
2022/08/03 05:43:48;;;;;;;7.67;2.80;;;19.70;99.90;;;;;;5073378;28;20216;-58
2022/08/03 05:46:16;;;;;;;5.63;2.53;;;20.00;99.90;;;;;;5063094;28;20286;-58
2022/08/03 05:48:45;;;;;;;6.87;2.60;;;20.10;99.90;;;;;;5053445;28;20581;-58
2022/08/03 05:51:13;;;;;;;8.47;2.73;;;20.20;99.90;;;;;;5069293;28;20204;-59
2022/08/03 05:53:42;;;;;;;11.63;2.67;;;20.40;99.90;;;;;;5071478;28;20227;-59
2022/08/03 05:56:11;;;;;;;11.53;2.53;;;20.50;99.90;;;;;;5073011;28;20192;-59
2022/08/03 05:58:43;;;;;;;8.37;2.73;;;20.60;99.90;;;;;;5072953;28;20231;-59
2022/08/03 06:01:13;;;;;;;5.70;2.47;;;20.70;99.90;;;;;;5072665;28;20219;-59
2022/08/03 06:03:41;;;;;;;6.50;2.43;;;20.90;99.90;;;;;;5103676;28;20223;-58
2022/08/03 06:06:10;;;;;;;13.80;2.90;;;21.10;99.90;;;;;;5072429;28;20233;-59
2022/08/03 06:08:39;;;;;;;6.17;2.70;;;21.20;99.90;;;;;;5060109;28;20221;-59
2022/08/03 06:11:07;;;;;;;6.57;2.10;;;21.40;99.90;;;;;;5056108;28;20212;-59
2022/08/03 06:13:36;;;;;;;5.90;2.30;;;21.50;99.90;;;;;;5072718;28;20610;-59
2022/08/03 06:16:05;;;;;;;4.73;2.27;;;21.60;99.90;;;;;;5072780;28;20219;-59
2022/08/03 06:18:35;;;;;;;6.03;2.20;;;21.60;99.90;;;;;;5072671;28;20214;-59
2022/08/03 06:21:04;;;;;;;3.40;2.40;;;21.80;99.90;;;;;;5078884;28;20187;-58
2022/08/03 06:23:43;;;;;;;6.57;2.50;;;22.00;99.90;;;;;;5072777;28;20216;-59
2022/08/03 06:26:20;;;;;;;5.07;2.33;;;22.10;99.90;;;;;;5072574;28;20547;-59
2022/08/03 06:28:49;;;;;;;4.80;2.20;;;22.20;99.90;;;;;;5071432;28;20279;-59
2022/08/03 06:31:21;;;;;;;8.20;2.43;;;22.30;99.90;;;;;;5071352;28;20200;-58
2022/08/03 06:33:51;;;;;;;14.47;2.53;;;22.30;99.90;;;;;;5070881;28;20184;-60
2022/08/03 06:36:43;;;;;;;5.43;2.07;;;22.50;99.90;;;;;;5076370;28;20184;-58
2022/08/03 06:39:19;;;;;;;5.67;2.37;;;22.60;99.90;;;;;;5076241;28;20196;-59
2022/08/03 06:41:50;;;;;;;4.57;2.10;;;22.60;99.90;;;;;;5076418;28;20687;-58
2022/08/03 06:44:18;;;;;;;7.63;2.60;;;22.90;99.90;;;;;;5069848;28;20676;-59
2022/08/03 06:46:47;;;;;;;6.47;2.20;;;22.90;99.90;;;;;;5059825;28;20565;-58
2022/08/03 06:49:19;;;;;;;9.37;2.33;;;23.00;99.90;;;;;;5063251;28;20195;-58
2022/08/03 06:51:49;;;;;;;10.47;2.47;;;23.10;99.90;;;;;;5076236;28;20212;-59
2022/08/03 06:54:36;;;;;;;6.60;2.07;;;23.10;99.90;;;;;;5072669;28;20561;-59
2022/08/03 06:57:06;;;;;;;6.67;2.30;;;23.30;99.90;;;;;;5068596;28;20205;-59
2022/08/03 06:59:35;;;;;;;8.57;2.50;;;23.40;99.90;;;;;;5070521;28;20202;-58
2022/08/03 07:02:23;;;;;;;8.17;2.00;;;23.50;99.90;;;;;;5065975;28;20581;-58
2022/08/03 07:04:57;;;;;;;5.23;2.20;;;23.50;99.90;;;;;;5075575;28;20729;-59
2022/08/03 07:07:25;;;;;;;9.70;2.50;;;23.60;99.90;;;;;;5064118;28;20211;-58
2022/08/03 07:09:54;;;;;;;5.97;2.07;;;23.80;99.90;;;;;;5073642;28;20223;-58
2022/08/03 07:12:26;;;;;;;10.40;1.87;;;24.00;99.90;;;;;;5070353;28;20203;-59
2022/08/03 07:14:55;;;;;;;12.03;1.90;;;24.30;99.90;;;;;;5076047;28;20261;-59
2022/08/03 07:17:29;;;;;;;7.00;1.90;;;24.50;99.90;;;;;;5067701;28;20215;-58
2022/08/03 07:19:59;;;;;;;7.27;1.87;;;24.80;99.90;;;;;;5067456;28;20283;-59
2022/08/03 07:22:28;;;;;;;6.70;2.00;;;25.10;99.90;;;;;;5063577;28;20184;-59
2022/08/03 07:24:56;;;;;;;8.20;1.93;;;25.20;99.90;;;;;;5075477;28;20220;-59
2022/08/03 07:27:27;;;;;;;4.90;2.20;;;25.50;99.90;;;;;;5066121;28;20287;-59
2022/08/03 07:29:56;;;;;;;7.93;2.43;;;25.70;99.90;;;;;;5055618;28;20193;-58
2022/08/03 07:32:25;;;;;;;5.97;2.00;;;25.90;99.90;;;;;;5069977;28;20192;-59
2022/08/03 07:34:53;;;;;;;5.83;2.00;;;25.90;99.90;;;;;;5056246;28;20197;-59
2022/08/03 07:37:30;;;;;;;7.73;1.90;;;25.80;99.90;;;;;;5075729;28;20222;-59
2022/08/03 07:39:59;;;;;;;5.93;2.30;;;25.70;99.90;;;;;;5065046;28;20204;-59
2022/08/03 07:42:30;;;;;;;5.15;2.00;;;25.70;99.90;;;;;;5066639;28;20227;-58
2022/08/03 07:45:02;;;;;;;8.93;2.10;;;25.80;99.90;;;;;;5072930;28;20255;-58
2022/08/03 07:47:31;;;;;;;6.78;2.40;;;26.00;99.90;;;;;;5064767;28;20195;-59
2022/08/03 07:50:04;;;;;;;11.52;1.95;;;26.10;99.90;;;;;;5068797;28;20579;-59
2022/08/03 07:52:50;;;;;;;9.52;1.90;;;26.20;99.90;;;;;;5073561;28;20200;-58
2022/08/03 07:55:19;;;;;;;8.70;2.00;;;26.40;99.90;;;;;;5066055;28;20223;-59
2022/08/03 07:58:03;;;;;;;8.20;2.03;;;26.50;99.90;;;;;;5070544;28;20272;-59
2022/08/03 08:00:31;;;;;;;4.47;2.00;;;26.70;99.90;;;;;;5075844;28;20217;-58
2022/08/03 08:03:00;;;;;;;12.90;2.10;;;27.10;99.90;;;;;;5072325;28;20967;-59
2022/08/03 08:05:29;;;;;;;8.80;1.90;;;27.40;99.90;;;;;;5073300;28;20281;-59
2022/08/03 08:07:59;;;;;;;8.90;2.20;;;27.90;99.90;;;;;;5068421;28;20664;-60
2022/08/03 08:10:28;;;;;;;8.13;2.30;;;28.20;99.90;;;;;;5069013;28;20640;-59
2022/08/03 08:12:57;;;;;;;6.30;2.03;;;28.30;99.90;;;;;;5058552;28;20200;-59
2022/08/03 08:15:25;;;;;;;12.68;2.00;;;28.10;99.90;;;;;;5068468;28;20254;-59
2022/08/03 08:17:56;;;;;;;9.27;2.15;;;28.60;99.90;;;;;;5074536;28;20196;-60
2022/08/03 08:20:26;;;;;;;9.85;2.30;;;28.60;99.90;;;;;;5103755;28;20223;-60
2022/08/03 08:23:04;;;;;;;5.50;2.33;;;28.60;99.90;;;;;;5072762;28;20192;-60
2022/08/03 08:25:53;;;;;;;5.97;1.80;;;28.80;99.90;;;;;;5073024;28;20222;-59
2022/08/03 08:28:22;;;;;;;7.25;2.00;;;28.70;99.90;;;;;;5074035;28;20200;-59
2022/08/03 08:31:00;;;;;;;6.05;2.08;;;28.60;99.90;;;;;;5067204;28;20282;-59
2022/08/03 08:33:29;;;;;;;8.90;2.30;;;28.90;99.90;;;;;;5063073;28;20207;-59
2022/08/03 08:36:18;;;;;;;10.73;2.10;;;29.30;99.90;;;;;;5072309;28;20192;-59
2022/08/03 08:38:48;;;;;;;9.27;2.22;;;29.90;99.90;;;;;;5071909;28;20192;-60
2022/08/03 08:41:17;;;;;;;8.02;2.00;;;29.80;99.90;;;;;;5065545;28;20200;-59
2022/08/03 08:43:45;;;;;;;8.20;1.90;;;29.90;99.90;;;;;;5062836;28;20198;-59
2022/08/03 08:46:16;;;;;;;8.07;2.20;;;29.90;99.90;;;;;;5065407;28;20208;-59
2022/08/03 08:48:52;;;;;;;8.38;1.95;;;30.20;99.90;;;;;;5069972;28;20262;-59
2022/08/03 08:51:27;;;;;;;6.30;1.88;;;30.80;99.90;;;;;;5095523;28;20198;-59
2022/08/03 08:54:25;;;;;;;8.60;1.85;;;30.40;99.90;;;;;;5064994;28;20194;-59
2022/08/03 08:56:58;;;;;;;15.07;2.33;;;30.00;99.90;;;;;;5063363;28;20231;-60
2022/08/03 08:59:27;;;;;;;12.15;2.42;;;30.30;99.90;;;;;;5073399;28;20192;-59
2022/08/03 09:02:15;;;;;;;9.48;1.80;;;30.80;99.90;;;;;;5070414;28;20195;-59
2022/08/03 09:04:47;;;;;;;6.43;1.77;;;31.60;99.90;;;;;;5070216;28;20211;-59
2022/08/03 09:07:17;;;;;;;5.13;1.95;;;31.60;99.90;;;;;;5061942;28;20714;-60
2022/08/03 09:09:57;;;;;;;10.25;2.13;;;31.90;99.90;;;;;;5069542;28;20310;-60
2022/08/03 09:12:42;;;;;;;6.78;1.60;;;32.40;99.90;;;;;;5068848;28;20192;-59
2022/08/03 09:15:23;;;;;;;7.60;1.80;;;32.40;99.90;;;;;;5066667;28;20200;-59
2022/08/03 09:17:52;;;;;;;10.65;2.00;;;32.30;99.90;;;;;;5063293;28;20224;-59
2022/08/03 09:20:22;;;;;;;7.80;2.13;;;32.80;99.90;;;;;;5053488;28;20250;-58
2022/08/03 09:22:56;;;;;;;8.80;1.80;;;33.10;99.90;;;;;;5065995;28;20201;-58
2022/08/03 09:25:34;;;;;;;6.68;1.85;;;33.30;99.90;;;;;;5072994;28;20693;-59
2022/08/03 09:28:08;;;;;;;4.32;1.65;;;32.90;99.90;;;;;;5070350;28;20715;-60
2022/08/03 09:30:38;;;;;;;9.05;1.90;;;32.70;99.90;;;;;;5062277;28;20192;-59
2022/08/03 09:33:08;;;;;;;5.47;1.63;;;33.50;99.90;;;;;;5072393;28;20278;-59
2022/08/03 09:35:42;;;;;;;6.90;1.80;;;34.00;99.90;;;;;;5061671;28;20184;-59
2022/08/03 09:38:26;;;;;;;9.52;2.17;;;34.00;99.90;;;;;;5060587;28;20197;-60
2022/08/03 09:40:57;;;;;;;6.25;1.65;;;34.70;99.90;;;;;;5057502;28;20192;-60
2022/08/03 09:43:28;;;;;;;4.10;1.80;;;35.10;99.90;;;;;;5104671;28;20790;-59
2022/08/03 09:46:03;;;;;;;2.95;1.40;;;34.90;99.90;;;;;;5066335;28;20269;-59
2022/08/03 09:48:33;;;;;;;4.93;1.85;;;34.80;99.90;;;;;;5070440;28;20654;-59
2022/08/03 09:51:03;;;;;;;5.82;1.80;;;34.90;99.90;;;;;;5072764;28;20279;-60
2022/08/03 09:53:58;;;;;;;7.00;1.60;;;34.90;99.90;;;;;;5064667;28;20204;-60
2022/08/03 09:56:43;;;;;;;5.60;1.80;;;35.50;99.90;;;;;;5055367;28;20275;-59
2022/08/03 09:59:14;;;;;;;4.03;1.30;;;35.10;99.90;;;;;;5067285;28;20228;-60
2022/08/03 10:01:42;;;;;;;5.80;2.08;;;35.00;99.90;;;;;;5065790;28;20184;-59
2022/08/03 10:04:15;;;;;;;4.35;1.40;;;35.10;99.90;;;;;;5066218;28;20197;-59
2022/08/03 10:06:45;;;;;;;9.50;1.80;;;35.30;99.90;;;;;;5063934;28;20250;-59
2022/08/03 10:09:15;;;;;;;4.65;1.75;;;35.20;99.90;;;;;;5078447;28;20678;-59
2022/08/03 10:11:46;;;;;;;3.80;1.48;;;35.60;99.90;;;;;;5077009;28;20224;-59
2022/08/03 10:14:18;;;;;;;5.22;1.75;;;35.20;99.90;;;;;;5074148;28;20208;-59
2022/08/03 10:16:48;;;;;;;4.65;1.60;;;35.20;99.90;;;;;;5099351;28;20204;-59
2022/08/03 10:19:18;;;;;;;7.63;1.80;;;35.70;99.90;;;;;;5073982;28;20272;-58
2022/08/03 10:21:49;;;;;;;4.30;1.40;;;35.70;99.90;;;;;;5072690;28;20188;-59
2022/08/03 10:24:26;;;;;;;4.80;1.70;;;35.40;99.90;;;;;;5077209;28;20207;-59
2022/08/03 10:27:02;;;;;;;4.10;1.40;;;35.20;99.90;;;;;;5061489;28;20569;-59
2022/08/03 10:29:34;;;;;;;7.25;1.33;;;35.50;99.90;;;;;;5072784;28;20208;-59
2022/08/03 10:32:07;;;;;;;7.63;1.52;;;36.10;99.90;;;;;;5079419;28;20286;-60
2022/08/03 10:34:40;;;;;;;4.72;1.55;;;36.40;99.90;;;;;;5068999;28;20254;-60
2022/08/03 10:37:14;;;;;;;4.10;1.40;;;36.80;99.90;;;;;;5066537;28;20195;-59
2022/08/03 10:39:53;;;;;;;3.03;1.33;;;36.60;99.90;;;;;;5067141;28;20193;-59
2022/08/03 10:42:30;;;;;;;4.25;1.70;;;36.40;99.90;;;;;;5075251;28;20214;-59
2022/08/03 10:45:05;;;;;;;6.57;1.70;;;36.30;99.90;;;;;;5076886;28;20281;-59
2022/08/03 10:47:34;;;;;;;2.33;1.58;;;36.40;99.60;;;;;;5075355;28;20294;-59
2022/08/03 10:50:04;;;;;;;5.05;1.30;;;36.20;99.90;;;;;;5075447;28;20200;-59
2022/08/03 10:52:33;;;;;;;1.98;1.60;;;36.10;99.50;;;;;;5069990;28;20197;-59
2022/08/03 10:58:49;;;;;;;11.55;1.50;;;36.30;99.90;;;;;;5071275;28;20666;-59
2022/08/03 11:01:52;;;;;;;3.05;1.38;;;36.40;99.60;;;;;;5061979;28;20199;-59
2022/08/03 11:04:29;;;;;;;3.83;1.27;;;36.10;99.60;;;;;;5072668;28;20208;-59
2022/08/03 11:07:18;;;;;;;3.20;1.20;;;36.10;99.80;;;;;;5068837;28;20220;-58
2022/08/03 11:09:48;;;;;;;5.03;1.30;;;35.50;99.20;;;;;;5070974;28;20227;-59
2022/08/03 11:12:23;;;;;;;4.88;1.20;;;35.20;99.10;;;;;;5066048;28;20214;-59
2022/08/03 11:15:02;;;;;;;2.38;1.33;;;34.80;99.90;;;;;;5074193;28;20537;-59
2022/08/03 11:17:32;;;;;;;6.03;1.38;;;35.00;99.90;;;;;;5074885;28;20208;-59
2022/08/03 11:20:44;;;;;;;3.60;1.20;;;35.20;99.90;;;;;;5061754;28;20200;-59
2022/08/03 11:23:13;;;;;;;3.42;1.05;;;35.60;99.90;;;;;;5074119;28;20239;-59
2022/08/03 11:26:10;;;;;;;2.25;1.00;;;35.80;99.50;;;;;;5075614;28;20284;-59
2022/08/03 11:28:39;;;;;;;3.47;1.20;;;35.70;99.20;;;;;;5074553;28;20226;-59
2022/08/03 11:31:47;;;;;;;2.28;1.17;;;35.40;98.80;;;;;;5075179;28;20231;-59
2022/08/03 11:34:19;;;;;;;4.03;1.35;;;35.40;98.90;;;;;;5069900;28;20234;-59
2022/08/03 11:37:20;;;;;;;5.95;1.55;;;35.50;99.70;;;;;;5075315;28;20263;-60
2022/08/03 11:39:53;;;;;;;2.72;1.20;;;35.80;99.60;;;;;;5068769;28;20587;-59
2022/08/03 11:42:46;;;;;;;1.95;0.98;;;35.80;99.40;;;;;;5075018;28;20299;-59
2022/08/03 11:45:16;;;;;;;1.50;1.05;;;35.90;99.00;;;;;;5065996;28;20197;-59
2022/08/03 11:47:47;;;;;;;3.40;1.17;;;35.50;98.80;;;;;;5071569;28;21077;-58
2022/08/03 11:50:20;;;;;;;5.40;0.90;;;35.30;99.20;;;;;;5073375;28;20616;-59
2022/08/03 11:52:49;;;;;;;4.72;1.17;;;35.20;98.90;;;;;;5057461;28;20191;-59
2022/08/03 11:55:20;;;;;;;5.13;1.17;;;34.80;99.40;;;;;;5074326;28;20756;-58
2022/08/03 11:57:50;;;;;;;1.60;1.10;;;34.90;99.90;;;;;;5074106;28;20194;-58
2022/08/03 12:00:38;;;;;;;1.60;1.10;;;35.00;99.30;;;;;;5065799;28;20593;-59
2022/08/03 12:03:10;;;;;;;2.90;1.42;;;34.60;99.20;;;;;;5066006;28;20202;-58
2022/08/03 12:05:48;;;;;;;3.05;0.85;;;34.30;98.80;;;;;;5068135;28;20197;-59
2022/08/03 12:08:30;;;;;;;3.28;1.23;;;34.10;99.10;;;;;;5073291;28;20642;-59
2022/08/03 12:11:01;;;;;;;3.45;1.23;;;33.90;98.90;;;;;;5067111;28;20265;-58
2022/08/03 12:13:40;;;;;;;1.45;1.20;;;33.70;99.90;;;;;;5064105;28;20222;-58
2022/08/03 12:16:29;;;;;;;3.75;1.65;;;33.60;99.50;;;;;;5057780;28;20603;-59
2022/08/03 12:19:01;;;;;;;2.00;1.10;;;33.70;99.90;;;;;;5061205;28;20207;-59
2022/08/03 12:21:30;;;;;;;3.25;1.35;;;34.20;99.50;;;;;;5074935;28;20201;-58
2022/08/03 12:23:59;;;;;;;1.20;1.10;;;33.90;99.20;;;;;;5070198;28;20206;-58
2022/08/03 12:26:29;;;;;;;3.00;1.30;;;33.90;99.10;;;;;;5071647;28;20197;-58
2022/08/03 12:28:57;;;;;;;1.20;1.10;;;33.90;99.90;;;;;;5071385;28;20200;-58
2022/08/03 12:31:26;;;;;;;2.50;1.25;;;34.10;99.90;;;;;;5053879;28;20185;-58
2022/08/03 12:34:02;;;;;;;3.58;1.40;;;34.10;99.60;;;;;;5059720;28;20200;-58
2022/08/03 12:36:32;;;;;;;3.88;1.05;;;33.80;99.30;;;;;;5074322;28;20954;-58
2022/08/03 12:39:05;;;;;;;5.95;1.30;;;33.40;99.50;;;;;;5067019;28;20286;-58
2022/08/03 12:41:35;;;;;;;4.50;1.40;;;33.50;99.90;;;;;;5073805;28;20223;-58
2022/08/03 12:44:04;;;;;;;5.55;1.10;;;33.40;99.20;;;;;;5068682;28;20683;-58
2022/08/03 12:46:34;;;;;;;2.25;1.00;;;33.30;99.60;;;;;;5055566;28;20193;-58
2022/08/03 12:49:07;;;;;;;3.08;1.13;;;33.00;99.90;;;;;;5063238;28;20338;-58
2022/08/03 12:51:38;;;;;;;3.80;1.25;;;33.10;99.50;;;;;;5071920;28;20206;-58
2022/08/03 12:54:06;;;;;;;2.72;1.10;;;33.40;99.70;;;;;;5099731;28;20200;-58
2022/08/03 12:56:35;;;;;;;4.32;1.30;;;33.50;99.90;;;;;;5069859;28;20189;-58
2022/08/03 12:59:25;;;;;;;3.10;1.40;;;33.40;99.90;;;;;;5071782;28;20289;-58
2022/08/03 13:02:02;;;;;;;6.32;1.42;;;33.40;99.60;;;;;;5070703;28;20627;-58
2022/08/03 13:04:37;;;;;;;3.08;1.40;;;33.30;99.90;;;;;;5072912;28;20682;-58
2022/08/03 13:07:07;;;;;;;2.05;1.10;;;33.50;99.90;;;;;;5072723;28;20180;-58
2022/08/03 13:09:43;;;;;;;1.73;1.20;;;33.60;99.90;;;;;;5071556;28;20257;-58
2022/08/03 13:12:13;;;;;;;3.13;1.15;;;33.50;99.60;;;;;;5072717;28;20196;-58
2022/08/03 13:14:41;;;;;;;6.00;1.50;;;33.20;99.50;;;;;;5066910;28;20280;-58
2022/08/03 13:17:10;;;;;;;1.50;1.40;;;33.40;99.60;;;;;;5068069;28;20657;-58
2022/08/03 13:19:40;;;;;;;2.65;1.38;;;33.60;99.90;;;;;;5099087;28;20199;-58
2022/08/03 13:22:13;;;;;;;4.57;1.40;;;33.40;99.10;;;;;;5069561;28;20191;-58
2022/08/03 13:24:43;;;;;;;3.75;1.55;;;33.10;99.20;;;;;;5069280;28;20208;-58
2022/08/03 13:27:12;;;;;;;2.95;1.20;;;33.20;99.90;;;;;;5072586;28;20562;-58
2022/08/03 13:30:02;;;;;;;4.22;1.70;;;33.60;99.90;;;;;;5085592;28;20592;-58
2022/08/03 13:32:31;;;;;;;1.88;1.20;;;33.40;99.50;;;;;;5073255;28;20188;-58
2022/08/03 13:35:01;;;;;;;4.03;1.58;;;33.60;99.90;;;;;;5078790;28;20838;-58
2022/08/03 13:37:31;;;;;;;3.92;1.20;;;33.80;99.40;;;;;;5081545;28;20639;-59
2022/08/03 13:39:59;;;;;;;5.20;1.33;;;33.80;98.90;;;;;;5068120;28;20196;-58